This is the latest recevied weather packets stored in our database for station/object PP5ABU-13. If no packets are shown the sender has not sent any weather packets the latest 10 day(s).
| Time | Temp. | Humidity | Pressure | Rain* | Wind** | Luminosity | Snow |
|---|---|---|---|---|---|---|---|
| 1777343405 | 18.89° C | 61% | 1014.6 hPa | 0 mm | - | - | - |
| 1777342504 | 18.89° C | 63% | 1014.8 hPa | 0 mm | - | - | - |
| 1777341605 | 18.89° C | 63% | 1014.7 hPa | 0 mm | - | - | - |
| 1777340704 | 18.33° C | 66% | 1014.7 hPa | 0 mm | - | - | - |
| 1777339804 | 18.33° C | 69% | 1014.8 hPa | 0 mm | - | - | - |
| 1777338904 | 18.33° C | 68% | 1014.7 hPa | 0 mm | - | - | - |
| 1777338005 | 18.89° C | 69% | 1014.6 hPa | 0 mm | - | - | - |
| 1777337105 | 18.89° C | 70% | 1014.5 hPa | 0 mm | - | - | - |
| 1777336204 | 18.89° C | 71% | 1014.6 hPa | 0 mm | - | - | - |
| 1777335305 | 19.44° C | 70% | 1014.5 hPa | 0 mm | - | - | - |
| 1777334405 | 19.44° C | 72% | 1014.3 hPa | 0 mm | - | - | - |
| 1777333505 | 19.44° C | 72% | 1014.3 hPa | 0 mm | - | - | - |
| 1777332604 | 19.44° C | 74% | 1014.1 hPa | 0 mm | - | - | - |
| 1777331704 | 19.44° C | 75% | 1013.8 hPa | 0 mm | - | - | - |
| 1777330804 | 20° C | 74% | 1013.5 hPa | 0 mm | - | - | - |
| 1777329904 | 20° C | 72% | 1013.1 hPa | 0 mm | - | - | - |
| 1777329004 | 20.56° C | 71% | 1012.8 hPa | 0 mm | - | - | - |
| 1777328104 | 21.11° C | 72% | 1012.5 hPa | 0 mm | - | - | - |
| 1777327205 | 21.11° C | 72% | 1012.3 hPa | 0 mm | - | - | - |
| 1777326304 | 21.11° C | 73% | 1012 hPa | 0 mm | - | - | - |
| 1777325404 | 21.11° C | 76% | 1011.8 hPa | 0 mm | - | - | - |
| 1777324504 | 21.11° C | 77% | 1011.7 hPa | 0 mm | - | - | - |
| 1777323605 | 21.67° C | 76% | 1011.3 hPa | 0 mm | - | - | - |
| 1777322704 | 21.67° C | 74% | 1011.1 hPa | 0 mm | - | - | - |
| 1777321804 | 22.78° C | 71% | 1010.8 hPa | 0 mm | - | - | - |
* Rain latest hour (hover to see other rain measurements)
** Current wind speed in m/s (hover to see current wind gust speed)